Time;durP1;ratioP1;P1;durP2;ratioP2;P2;SDS_P1;SDS_P2;PMS_P1;PMS_P2;Temp;Humidity;BMP_temperature;BMP_pressure;BME280_temperature;BME280_humidity;BME280_pressure;Samples;Min_cycle;Max_cycle;Signal;HPM_P1;HPM_P2
2024/01/23 00:04:05;;;;;;;14.83;3.63;;;;;7.60;101366.00;;;;9850713;29;21350;-78
2024/01/23 00:09:07;;;;;;;15.83;3.23;;;;;7.60;101371.00;;;;9845044;29;20236;-76
2024/01/23 00:14:09;;;;;;;17.73;3.23;;;;;7.50;101392.00;;;;9830725;30;20933;-78
2024/01/23 00:19:11;;;;;;;13.60;3.10;;;;;7.50;101413.00;;;;9840834;29;20232;-77
2024/01/23 00:24:13;;;;;;;21.00;4.43;;;;;7.50;101426.00;;;;9846119;29;20220;-76
2024/01/23 00:29:15;;;;;;;24.10;4.13;;;;;7.40;101408.00;;;;9837054;29;20285;-76
2024/01/23 00:34:17;;;;;;;16.17;3.43;;;;;7.40;101425.00;;;;9837928;29;20239;-76
2024/01/23 00:39:19;;;;;;;19.90;5.37;;;;;7.30;101448.00;;;;9848527;29;20232;-76
2024/01/23 00:44:21;;;;;;;22.43;3.60;;;;;7.20;101451.00;;;;9847680;29;20240;-76
2024/01/23 00:49:23;;;;;;;20.47;3.63;;;;;7.20;101437.00;;;;9845636;29;20215;-77
2024/01/23 00:54:25;;;;;;;25.23;4.20;;;;;7.30;101472.00;;;;9829781;29;20232;-78
2024/01/23 00:59:27;;;;;;;19.23;4.20;;;;;7.30;101476.00;;;;9845159;29;20263;-76
2024/01/23 01:04:29;;;;;;;23.07;4.53;;;;;7.30;101474.00;;;;9840495;29;20791;-77
2024/01/23 01:09:31;;;;;;;25.63;4.63;;;;;7.30;101497.00;;;;9836511;30;20236;-76
2024/01/23 01:14:34;;;;;;;20.20;3.60;;;;;7.20;101501.00;;;;9858881;29;20232;-76
2024/01/23 01:19:36;;;;;;;20.23;4.10;;;;;7.20;101511.00;;;;9857685;29;20315;-76
2024/01/23 01:24:38;;;;;;;23.97;4.57;;;;;7.10;101510.00;;;;9833712;29;20232;-75
2024/01/23 01:29:40;;;;;;;27.03;4.67;;;;;7.10;101518.00;;;;9847091;29;20237;-76
2024/01/23 01:34:42;;;;;;;21.10;3.87;;;;;7.00;101531.00;;;;9850203;29;20228;-76
2024/01/23 01:39:44;;;;;;;18.97;4.27;;;;;7.00;101541.00;;;;9848926;29;20691;-77
2024/01/23 01:44:46;;;;;;;19.93;3.30;;;;;7.00;101545.00;;;;9849952;29;20853;-76
2024/01/23 01:49:48;;;;;;;23.93;4.03;;;;;6.90;101563.00;;;;9861053;29;20232;-76
2024/01/23 01:54:50;;;;;;;23.70;4.27;;;;;6.90;101571.00;;;;9850320;29;20236;-81
2024/01/23 01:59:52;;;;;;;16.77;3.80;;;;;6.80;101579.00;;;;9844258;29;20246;-82
2024/01/23 02:04:54;;;;;;;18.27;4.13;;;;;6.80;101582.00;;;;9833013;29;20232;-80
2024/01/23 02:09:56;;;;;;;23.20;3.53;;;;;6.80;101602.00;;;;9860088;29;20595;-81
2024/01/23 02:14:58;;;;;;;21.13;3.70;;;;;6.70;101605.00;;;;9854857;29;20254;-81
2024/01/23 02:20:00;;;;;;;19.47;3.70;;;;;6.70;101602.00;;;;9840679;29;20794;-80
2024/01/23 02:25:03;;;;;;;24.57;3.77;;;;;6.70;101628.00;;;;9861098;29;20235;-81
2024/01/23 02:30:05;;;;;;;12.10;3.10;;;;;6.60;101634.00;;;;9838974;29;20232;-80
2024/01/23 02:35:07;;;;;;;26.70;3.80;;;;;6.60;101644.00;;;;9848509;29;20232;-80
2024/01/23 02:40:09;;;;;;;17.10;3.17;;;;;6.50;101651.00;;;;9853837;29;20236;-80
2024/01/23 02:45:11;;;;;;;24.53;3.43;;;;;6.50;101654.00;;;;9837336;29;20252;-80
2024/01/23 02:50:14;;;;;;;17.17;3.87;;;;;6.50;101669.00;;;;9850818;29;20314;-81
2024/01/23 02:55:15;;;;;;;15.87;3.43;;;;;6.40;101667.00;;;;9855390;29;20232;-80
2024/01/23 03:00:17;;;;;;;18.33;4.77;;;;;6.40;101666.00;;;;9837702;29;20684;-80
2024/01/23 03:05:19;;;;;;;17.83;4.17;;;;;6.30;101674.00;;;;9836551;29;20232;-78
2024/01/23 03:10:21;;;;;;;15.90;3.60;;;;;6.30;101683.00;;;;9844261;29;20236;-80
2024/01/23 03:15:23;;;;;;;15.27;3.40;;;;;6.30;101695.00;;;;9836085;29;20228;-79
2024/01/23 03:20:29;;;;;;;14.27;2.73;;;;;6.30;101704.00;;;;9861501;29;21077;-78
2024/01/23 03:25:32;;;;;;;19.53;3.43;;;;;6.20;101711.00;;;;9849827;29;20309;-79
2024/01/23 03:30:34;;;;;;;20.20;3.40;;;;;6.20;101721.00;;;;9826029;29;20236;-78
2024/01/23 03:35:36;;;;;;;23.90;4.33;;;;;6.10;101737.00;;;;9844866;29;20245;-79
2024/01/23 03:40:39;;;;;;;17.10;3.50;;;;;6.20;101742.00;;;;9832700;29;20267;-79
2024/01/23 03:45:40;;;;;;;14.60;3.20;;;;;6.20;101754.00;;;;9845060;29;20286;-79
2024/01/23 03:50:42;;;;;;;17.27;3.27;;;;;6.10;101764.00;;;;9859798;29;20230;-78
2024/01/23 03:55:44;;;;;;;15.90;2.77;;;;;6.00;101747.00;;;;9847107;29;20232;-79
2024/01/23 04:00:46;;;;;;;21.53;4.03;;;;;6.10;101757.00;;;;9854057;29;20312;-78
2024/01/23 04:05:48;;;;;;;13.33;3.13;;;;;6.00;101773.00;;;;9846766;29;20236;-79
2024/01/23 04:10:50;;;;;;;26.37;3.90;;;;;5.90;101785.00;;;;9836600;29;20224;-79
2024/01/23 04:15:52;;;;;;;17.43;3.23;;;;;5.90;101792.00;;;;9847357;29;20913;-77
2024/01/23 04:20:53;;;;;;;16.83;4.10;;;;;5.90;101808.00;;;;9845726;29;20355;-81
2024/01/23 04:25:55;;;;;;;17.93;3.80;;;;;5.80;101821.00;;;;9858308;29;20260;-77
2024/01/23 04:30:57;;;;;;;17.07;3.50;;;;;5.80;101825.00;;;;9855436;29;20640;-77
2024/01/23 04:35:59;;;;;;;20.57;3.37;;;;;5.70;101831.00;;;;9856812;29;21080;-77
2024/01/23 04:41:01;;;;;;;16.93;3.37;;;;;5.60;101846.00;;;;9836944;29;20236;-78
2024/01/23 04:46:03;;;;;;;17.90;3.17;;;;;5.70;101851.00;;;;9833580;29;20234;-78
2024/01/23 04:51:09;;;;;;;19.07;3.50;;;;;5.70;101863.00;;;;9829662;29;20872;-77
2024/01/23 04:56:11;;;;;;;19.47;3.77;;;;;5.60;101870.00;;;;9849574;29;20313;-78
2024/01/23 05:01:13;;;;;;;16.27;3.23;;;;;5.60;101876.00;;;;9849542;29;20315;-77
2024/01/23 05:06:15;;;;;;;16.73;4.23;;;;;5.60;101897.00;;;;9849736;29;20235;-77
2024/01/23 05:11:17;;;;;;;14.63;2.83;;;;;5.60;101905.00;;;;9851607;29;20616;-77
2024/01/23 05:16:18;;;;;;;19.20;4.10;;;;;5.50;101922.00;;;;9836164;29;20325;-77
2024/01/23 05:21:21;;;;;;;18.23;3.40;;;;;5.40;101937.00;;;;9848410;29;20236;-77
2024/01/23 05:26:23;;;;;;;12.67;2.70;;;;;5.40;101947.00;;;;9865279;29;20638;-80
2024/01/23 05:31:25;;;;;;;16.23;3.67;;;;;5.40;101946.00;;;;9847500;29;20323;-80
2024/01/23 05:36:27;;;;;;;16.73;3.33;;;;;5.40;101964.00;;;;9847296;29;20240;-78
2024/01/23 05:41:28;;;;;;;10.97;2.60;;;;;5.50;101969.00;;;;9843149;29;20238;-78
2024/01/23 05:46:32;;;;;;;19.33;3.50;;;;;5.40;101966.00;;;;9849521;29;20288;-78
2024/01/23 05:51:34;;;;;;;12.90;3.20;;;;;5.20;101985.00;;;;9831417;29;20307;-77
2024/01/23 05:56:36;;;;;;;14.00;3.33;;;;;5.10;102001.00;;;;9851429;29;20240;-81
2024/01/23 06:01:37;;;;;;;13.80;2.93;;;;;4.90;101997.00;;;;9850512;29;20231;-77
2024/01/23 06:06:41;;;;;;;16.50;3.50;;;;;4.80;102002.00;;;;9842016;29;20228;-78
2024/01/23 06:11:43;;;;;;;16.00;3.33;;;;;4.80;101993.00;;;;9857914;29;20583;-78
2024/01/23 06:16:45;;;;;;;17.10;4.60;;;;;4.70;101990.00;;;;9869141;29;20255;-78
2024/01/23 06:21:47;;;;;;;22.67;5.10;;;;;4.60;102000.00;;;;9831893;29;20227;-79
2024/01/23 06:26:49;;;;;;;20.13;5.40;;;;;4.60;101997.00;;;;9824593;29;20242;-78
2024/01/23 06:31:51;;;;;;;30.03;7.13;;;;;4.60;102010.00;;;;9847577;29;20708;-78
2024/01/23 06:36:54;;;;;;;26.37;5.60;;;;;4.50;102021.00;;;;9860664;29;20255;-79
2024/01/23 06:41:56;;;;;;;17.57;3.43;;;;;4.50;102027.00;;;;9841050;29;20286;-79
2024/01/23 06:46:58;;;;;;;15.10;3.33;;;;;4.50;102037.00;;;;9811034;29;20244;-79
2024/01/23 06:52:00;;;;;;;24.30;4.27;;;;;4.60;102021.00;;;;9845627;29;20259;-79
2024/01/23 06:57:03;;;;;;;21.47;3.53;;;;;4.70;102024.00;;;;9854594;29;20254;-79
2024/01/23 07:02:05;;;;;;;19.40;4.10;;;;;4.60;102023.00;;;;9860079;29;20225;-79
2024/01/23 07:07:08;;;;;;;39.67;6.77;;;;;4.60;102035.00;;;;9824851;29;20225;-79
2024/01/23 07:12:10;;;;;;;20.87;3.73;;;;;4.50;102047.00;;;;9852182;29;20228;-79
2024/01/23 07:17:13;;;;;;;28.90;5.17;;;;;4.50;102067.00;;;;9854410;29;20232;-79
2024/01/23 07:22:15;;;;;;;19.50;4.50;;;;;4.50;102062.00;;;;9841667;29;20254;-79
2024/01/23 07:27:18;;;;;;;31.83;5.23;;;;;4.60;102059.00;;;;9843249;29;20258;-79
2024/01/23 07:32:20;;;;;;;29.57;5.70;;;;;4.80;102057.00;;;;9854522;29;20703;-79
2024/01/23 07:37:22;;;;;;;23.63;4.30;;;;;4.70;102068.00;;;;9828999;29;20990;-78
2024/01/23 07:42:23;;;;;;;24.83;4.50;;;;;4.70;102076.00;;;;9837590;29;20232;-78
2024/01/23 07:47:25;;;;;;;19.40;4.40;;;;;4.70;102090.00;;;;9830829;29;20224;-77
2024/01/23 07:52:31;;;;;;;15.50;3.97;;;;;4.80;102095.00;;;;9846844;29;20268;-78
2024/01/23 07:57:33;;;;;;;23.77;5.00;;;;;4.90;102090.00;;;;9832226;29;20233;-78
2024/01/23 08:02:35;;;;;;;24.80;4.30;;;;;5.00;102095.00;;;;9850009;29;20243;-78
2024/01/23 08:07:38;;;;;;;32.00;5.73;;;;;5.10;102111.00;;;;9862306;29;20234;-77
2024/01/23 08:12:40;;;;;;;26.37;4.60;;;;;5.30;102113.00;;;;9845603;29;20236;-78
2024/01/23 08:17:42;;;;;;;21.80;5.20;;;;;5.60;102119.00;;;;9852936;29;20225;-78
2024/01/23 08:22:44;;;;;;;32.97;4.80;;;;;5.90;102134.00;;;;9854096;29;20285;-77
2024/01/23 08:27:46;;;;;;;27.77;4.40;;;;;6.30;102134.00;;;;9855284;29;20232;-78
2024/01/23 08:32:49;;;;;;;18.93;4.40;;;;;6.50;102145.00;;;;9843940;29;20237;-77
2024/01/23 08:37:51;;;;;;;25.63;5.10;;;;;6.40;102154.00;;;;9850098;29;20297;-78
2024/01/23 08:42:52;;;;;;;28.90;4.97;;;;;6.20;102155.00;;;;9855810;29;20382;-79
2024/01/23 08:47:55;;;;;;;31.10;5.27;;;;;6.10;102155.00;;;;9838439;29;20591;-77
2024/01/23 08:52:57;;;;;;;25.50;4.60;;;;;5.90;102168.00;;;;9855626;29;20859;-76
2024/01/23 08:57:59;;;;;;;19.37;4.87;;;;;5.80;102165.00;;;;9852760;29;20326;-77
2024/01/23 09:03:03;;;;;;;28.97;5.97;;;;;5.80;102158.00;;;;9850594;29;20319;-76
2024/01/23 09:08:05;;;;;;;19.67;4.50;;;;;6.60;102153.00;;;;9863533;29;20235;-78
2024/01/23 09:13:07;;;;;;;22.50;4.90;;;;;7.30;102149.00;;;;9826305;29;20229;-77
2024/01/23 09:18:09;;;;;;;27.87;5.60;;;;;7.90;102144.00;;;;9822627;29;20235;-77
2024/01/23 09:23:11;;;;;;;23.77;5.30;;;;;8.30;102153.00;;;;9850612;29;20228;-76
2024/01/23 09:28:13;;;;;;;30.10;4.93;;;;;8.20;102146.00;;;;9820024;29;20220;-77
2024/01/23 09:33:15;;;;;;;30.60;5.57;;;;;8.40;102150.00;;;;9848836;29;20238;-76
2024/01/23 09:38:17;;;;;;;28.63;5.70;;;;;8.80;102147.00;;;;9843609;29;20244;-76
2024/01/23 09:43:20;;;;;;;37.87;5.93;;;;;8.70;102136.00;;;;9838194;29;20591;-75
2024/01/23 09:48:22;;;;;;;32.80;6.20;;;;;8.80;102152.00;;;;9829251;29;20318;-76
2024/01/23 09:53:28;;;;;;;29.23;5.60;;;;;8.70;102151.00;;;;9855721;29;20244;-75
2024/01/23 09:58:31;;;;;;;37.10;6.90;;;;;9.10;102144.00;;;;9853973;29;20236;-76
2024/01/23 10:03:36;;;;;;;30.93;6.17;;;;;9.70;102144.00;;;;9825980;29;20240;-75
2024/01/23 10:08:38;;;;;;;36.53;6.07;;;;;9.70;102138.00;;;;9843159;29;20231;-75
2024/01/23 10:13:42;;;;;;;31.33;6.00;;;;;9.50;102133.00;;;;9845294;29;20236;-76
2024/01/23 10:18:48;;;;;;;31.43;7.17;;;;;9.40;102135.00;;;;9847873;29;20595;-75
2024/01/23 10:23:51;;;;;;;32.43;6.33;;;;;9.40;102135.00;;;;9838568;29;20667;-78
2024/01/23 10:28:54;;;;;;;35.47;6.40;;;;;9.30;102138.00;;;;9853595;29;20835;-77
2024/01/23 10:33:59;;;;;;;32.50;6.30;;;;;9.60;102155.00;;;;9837675;30;20316;-76
2024/01/23 10:39:02;;;;;;;31.77;5.40;;;;;9.80;102158.00;;;;9818027;29;20299;-76
2024/01/23 10:44:05;;;;;;;29.73;6.13;;;;;9.90;102146.00;;;;9826363;29;20746;-76
2024/01/23 10:49:07;;;;;;;27.13;6.07;;;;;10.00;102155.00;;;;9830507;29;20229;-77
2024/01/23 10:54:20;;;;;;;33.03;5.83;;;;;10.00;102153.00;;;;9852025;29;20236;-76
2024/01/23 10:59:27;;;;;;;29.90;7.03;;;;;10.00;102130.00;;;;9843590;29;20238;-76
2024/01/23 11:04:29;;;;;;;35.07;5.67;;;;;10.00;102132.00;;;;9863632;29;20268;-76
2024/01/23 11:09:54;;;;;;;32.67;6.00;;;;;10.10;102133.00;;;;9836437;29;20246;-76
2024/01/23 11:15:11;;;;;;;30.47;5.30;;;;;10.30;102113.00;;;;9818208;29;20240;-78
2024/01/23 11:20:16;;;;;;;28.50;6.10;;;;;10.30;102107.00;;;;9844787;29;20236;-79
2024/01/23 11:25:19;;;;;;;32.63;6.30;;;;;10.30;102099.00;;;;9836712;29;20232;-79
2024/01/23 11:30:21;;;;;;;35.77;5.80;;;;;10.40;102087.00;;;;9842149;29;20239;-80
2024/01/23 11:35:23;;;;;;;30.73;5.73;;;;;10.60;102066.00;;;;9855520;29;20239;-79
2024/01/23 11:40:33;;;;;;;32.53;6.13;;;;;10.80;102034.00;;;;9839419;29;20233;-80
2024/01/23 11:45:39;;;;;;;31.97;5.57;;;;;11.10;102035.00;;;;9848792;29;20235;-79
2024/01/23 11:50:44;;;;;;;27.50;6.57;;;;;11.00;102015.00;;;;9846282;29;20232;-79
2024/01/23 11:55:46;;;;;;;25.20;7.03;;;;;11.20;102020.00;;;;9849315;29;20987;-80
2024/01/23 12:00:48;;;;;;;30.50;6.10;;;;;11.60;102010.00;;;;9846698;29;20311;-80
2024/01/23 12:05:51;;;;;;;30.13;6.70;;;;;11.60;102003.00;;;;9839335;29;20244;-80
2024/01/23 12:10:55;;;;;;;27.80;5.97;;;;;11.40;101990.00;;;;9840455;30;20960;-79
2024/01/23 12:15:57;;;;;;;31.80;6.30;;;;;11.30;101982.00;;;;9857232;29;20687;-80
2024/01/23 12:20:59;;;;;;;39.20;7.00;;;;;11.60;101960.00;;;;9847911;29;20250;-80
2024/01/23 12:26:03;;;;;;;23.67;5.18;;;;;11.40;101970.00;;;;9821754;29;20228;-77
2024/01/23 12:31:11;;;;;;;40.47;5.70;;;;;11.10;101960.00;;;;9854236;29;20223;-77
2024/01/23 12:36:16;;;;;;;31.70;6.63;;;;;11.00;101952.00;;;;9857522;29;20323;-76
2024/01/23 12:41:18;;;;;;;29.83;6.37;;;;;10.90;101963.00;;;;9835613;29;20228;-76
2024/01/23 12:46:21;;;;;;;27.50;6.03;;;;;10.70;101965.00;;;;9838041;29;20244;-77
2024/01/23 12:51:28;;;;;;;22.33;5.90;;;;;10.30;101961.00;;;;9823791;29;20255;-76
2024/01/23 12:56:30;;;;;;;23.17;5.40;;;;;10.00;101947.00;;;;9856662;29;20240;-77
2024/01/23 13:01:32;;;;;;;27.80;5.27;;;;;9.90;101948.00;;;;9852608;29;20296;-75
2024/01/23 13:06:34;;;;;;;14.30;4.13;;;;;9.90;101936.00;;;;9843035;29;20323;-76
2024/01/23 13:11:40;;;;;;;24.53;5.30;;;;;9.80;101938.00;;;;9842878;29;20219;-76
2024/01/23 13:16:42;;;;;;;26.63;6.10;;;;;9.90;101936.00;;;;9836595;29;20240;-76
2024/01/23 13:21:44;;;;;;;21.80;5.03;;;;;9.90;101918.00;;;;9838402;29;20360;-76
2024/01/23 13:26:47;;;;;;;19.67;4.80;;;;;10.00;101911.00;;;;9836945;29;20235;-76
2024/01/23 13:31:51;;;;;;;28.00;5.23;;;;;10.00;101899.00;;;;9851670;29;20778;-77
2024/01/23 13:36:53;;;;;;;23.23;5.33;;;;;10.00;101890.00;;;;9865442;29;20239;-77
2024/01/23 13:41:58;;;;;;;18.00;4.43;;;;;9.80;101882.00;;;;9827151;29;20253;-77
2024/01/23 13:47:01;;;;;;;22.87;5.40;;;;;9.60;101869.00;;;;9835202;29;20321;-76
2024/01/23 13:52:06;;;;;;;28.43;5.50;;;;;9.30;101862.00;;;;9833738;29;20691;-76
2024/01/23 13:57:08;;;;;;;24.37;5.17;;;;;9.30;101856.00;;;;9827134;29;20255;-76
2024/01/23 14:02:09;;;;;;;14.53;4.53;;;;;9.20;101849.00;;;;9836005;29;20297;-76
2024/01/23 14:07:12;;;;;;;21.57;5.47;;;;;9.10;101846.00;;;;9841103;29;20848;-76
2024/01/23 14:12:14;;;;;;;16.20;3.97;;;;;8.90;101839.00;;;;9848973;29;20253;-78
2024/01/23 14:17:16;;;;;;;18.77;4.00;;;;;8.70;101825.00;;;;9842432;29;20736;-76
2024/01/23 14:22:18;;;;;;;20.57;4.57;;;;;8.70;101801.00;;;;9831079;29;20842;-76
2024/01/23 14:27:20;;;;;;;15.63;3.73;;;;;8.60;101788.00;;;;9825978;29;20329;-77
2024/01/23 14:32:21;;;;;;;20.13;4.27;;;;;8.50;101780.00;;;;9827466;29;20237;-75
2024/01/23 14:37:27;;;;;;;13.97;3.73;;;;;8.50;101757.00;;;;9857675;29;20331;-78
2024/01/23 14:42:29;;;;;;;21.97;4.87;;;;;8.40;101734.00;;;;9817261;29;20315;-78
2024/01/23 14:47:32;;;;;;;19.23;3.70;;;;;8.30;101717.00;;;;9828835;29;20236;-79
2024/01/23 14:52:37;;;;;;;27.13;4.37;;;;;8.20;101710.00;;;;9834167;29;20232;-80
2024/01/23 14:57:40;;;;;;;20.33;3.17;;;;;8.20;101672.00;;;;9836581;29;20239;-79
2024/01/23 15:02:45;;;;;;;17.70;3.40;;;;;8.20;101699.00;;;;9808100;29;20282;-81
2024/01/23 15:07:48;;;;;;;11.73;3.03;;;;;8.20;101664.00;;;;9833819;29;20232;-81
2024/01/23 15:12:50;;;;;;;17.47;3.47;;;;;8.10;101679.00;;;;9827626;29;20238;-79
2024/01/23 15:17:55;;;;;;;19.70;3.83;;;;;8.00;101689.00;;;;9831168;29;20238;-80
2024/01/23 15:22:57;;;;;;;21.10;4.37;;;;;8.00;101666.00;;;;9851730;29;20843;-81
2024/01/23 15:27:59;;;;;;;16.17;3.60;;;;;8.00;101650.00;;;;9831591;29;20331;-81
2024/01/23 15:33:02;;;;;;;15.37;3.47;;;;;8.00;101641.00;;;;9844388;29;20224;-81
2024/01/23 15:38:04;;;;;;;12.87;4.00;;;;;8.00;101638.00;;;;9838950;30;20228;-80
2024/01/23 15:43:08;;;;;;;13.67;2.67;;;;;8.00;101615.00;;;;9828371;29;20247;-81
2024/01/23 15:48:16;;;;;;;11.57;3.10;;;;;8.00;101626.00;;;;9829061;29;20229;-81
2024/01/23 15:53:18;;;;;;;17.43;4.00;;;;;8.00;101593.00;;;;9837741;29;20595;-81
2024/01/23 15:58:20;;;;;;;16.37;3.27;;;;;8.00;101585.00;;;;9846304;29;20243;-80
2024/01/23 16:03:22;;;;;;;17.23;3.57;;;;;8.00;101560.00;;;;9837286;29;20319;-80
2024/01/23 16:08:23;;;;;;;16.93;4.13;;;;;7.90;101559.00;;;;9848199;29;20228;-79
2024/01/23 16:13:25;;;;;;;19.53;3.47;;;;;7.90;101553.00;;;;9838772;29;20631;-79
2024/01/23 16:18:28;;;;;;;18.33;3.67;;;;;7.90;101549.00;;;;9849950;29;20379;-83
2024/01/23 16:23:31;;;;;;;15.07;3.50;;;;;7.90;101563.00;;;;9829876;29;20231;-81
2024/01/23 16:28:34;;;;;;;17.90;3.57;;;;;7.90;101549.00;;;;9835900;29;20370;-81
2024/01/23 16:33:36;;;;;;;8.80;2.77;;;;;8.00;101549.00;;;;9821752;29;20320;-80
2024/01/23 16:38:38;;;;;;;17.87;3.17;;;;;8.00;101545.00;;;;9843296;29;20817;-81
2024/01/23 16:43:39;;;;;;;19.57;3.50;;;;;8.10;101535.00;;;;9839374;29;20806;-81
2024/01/23 16:48:42;;;;;;;9.77;2.47;;;;;8.10;101531.00;;;;9813700;29;20297;-80
2024/01/23 16:53:44;;;;;;;14.90;2.87;;;;;8.10;101521.00;;;;9826178;29;20239;-80
2024/01/23 16:58:48;;;;;;;21.10;5.13;;;;;8.20;101530.00;;;;9835178;29;20239;-79
2024/01/23 17:03:50;;;;;;;18.03;3.73;;;;;8.20;101532.00;;;;9840830;29;20255;-82
2024/01/23 17:08:52;;;;;;;12.73;2.87;;;;;8.30;101519.00;;;;9861474;29;20232;-81
2024/01/23 17:13:54;;;;;;;9.07;2.13;;;;;8.40;101493.00;;;;9849902;29;20229;-81
2024/01/23 17:19:09;;;;;;;17.77;3.77;;;;;8.40;101465.00;;;;9845806;29;20239;-84
2024/01/23 17:24:13;;;;;;;17.93;4.17;;;;;8.60;101497.00;;;;9812095;29;20790;-82
2024/01/23 17:29:15;;;;;;;22.93;5.03;;;;;8.70;101466.00;;;;9815556;29;20232;-82
2024/01/23 17:34:17;;;;;;;18.50;4.17;;;;;8.80;101470.00;;;;9831504;29;20282;-82
2024/01/23 17:39:19;;;;;;;19.73;4.10;;;;;9.00;101457.00;;;;9837070;29;20256;-83
2024/01/23 17:44:20;;;;;;;19.63;5.73;;;;;9.10;101455.00;;;;9830188;29;20298;-82
2024/01/23 17:49:22;;;;;;;20.47;5.03;;;;;9.30;101452.00;;;;9848569;29;20951;-84
2024/01/23 17:54:25;;;;;;;19.10;5.13;;;;;9.30;101440.00;;;;9836861;29;20230;-83
2024/01/23 17:59:26;;;;;;;22.50;5.87;;;;;9.40;101427.00;;;;9820712;29;20239;-82
2024/01/23 18:04:28;;;;;;;19.23;4.87;;;;;9.50;101413.00;;;;9851174;29;20339;-83
2024/01/23 18:09:30;;;;;;;22.67;4.97;;;;;9.70;101398.00;;;;9831093;29;20236;-83
2024/01/23 18:14:37;;;;;;;22.37;5.50;;;;;9.80;101408.00;;;;9842999;29;20232;-79
2024/01/23 18:19:39;;;;;;;21.33;6.90;;;;;9.90;101407.00;;;;9830448;29;20244;-80
2024/01/23 18:24:42;;;;;;;29.47;6.63;;;;;9.90;101414.00;;;;9838233;29;20897;-81
2024/01/23 18:29:45;;;;;;;20.33;5.13;;;;;10.00;101420.00;;;;9839916;29;20261;-80
2024/01/23 18:34:47;;;;;;;22.07;5.33;;;;;10.00;101422.00;;;;9847325;29;20229;-79
2024/01/23 18:39:51;;;;;;;24.47;5.93;;;;;10.00;101400.00;;;;9826965;29;20236;-80
2024/01/23 18:44:53;;;;;;;23.77;5.23;;;;;10.00;101396.00;;;;9811089;29;20243;-80
2024/01/23 18:49:55;;;;;;;18.53;5.07;;;;;9.90;101352.00;;;;9855029;29;20259;-79
2024/01/23 18:54:57;;;;;;;16.10;5.27;;;;;9.90;101364.00;;;;9836625;29;20799;-79
2024/01/23 18:59:59;;;;;;;19.50;5.23;;;;;9.90;101396.00;;;;9829258;29;20259;-79
2024/01/23 19:05:03;;;;;;;16.63;5.27;;;;;9.90;101348.00;;;;9853626;29;20228;-78
2024/01/23 19:10:06;;;;;;;14.70;4.63;;;;;10.00;101355.00;;;;9829303;29;20240;-79
2024/01/23 19:15:08;;;;;;;22.27;4.77;;;;;10.10;101351.00;;;;9839688;29;20228;-79
2024/01/23 19:20:11;;;;;;;27.30;4.87;;;;;10.20;101347.00;;;;9845505;29;20236;-79
2024/01/23 19:25:13;;;;;;;19.60;4.63;;;;;10.30;101323.00;;;;9845909;29;20224;-78
2024/01/23 19:30:15;;;;;;;15.50;4.93;;;;;10.50;101335.00;;;;9832847;29;20376;-78
2024/01/23 19:35:16;;;;;;;22.90;5.07;;;;;10.50;101320.00;;;;9831749;29;20241;-79
2024/01/23 19:40:18;;;;;;;19.97;5.07;;;;;10.60;101330.00;;;;9834841;29;20232;-78
2024/01/23 19:45:20;;;;;;;20.90;5.03;;;;;10.60;101349.00;;;;9814981;30;20236;-78
2024/01/23 19:50:22;;;;;;;21.80;5.17;;;;;10.70;101306.00;;;;9833484;29;20239;-79
2024/01/23 19:55:24;;;;;;;21.47;6.13;;;;;10.70;101320.00;;;;9831367;29;20224;-78
2024/01/23 20:00:26;;;;;;;17.83;5.13;;;;;10.70;101300.00;;;;9816639;29;20328;-78
2024/01/23 20:05:28;;;;;;;22.57;5.47;;;;;10.80;101290.00;;;;9841701;29;20236;-78
2024/01/23 20:10:30;;;;;;;27.53;6.00;;;;;10.90;101289.00;;;;9847746;29;20252;-78
2024/01/23 20:15:33;;;;;;;24.67;4.67;;;;;10.90;101269.00;;;;9853784;29;20595;-78
2024/01/23 20:20:35;;;;;;;17.33;5.17;;;;;10.90;101289.00;;;;9836787;29;20243;-78
2024/01/23 20:25:37;;;;;;;22.43;4.27;;;;;11.00;101300.00;;;;9823115;29;20763;-78
2024/01/23 20:30:39;;;;;;;23.53;4.47;;;;;11.10;101253.00;;;;9829518;29;20888;-78
2024/01/23 20:35:41;;;;;;;24.23;4.47;;;;;11.20;101253.00;;;;9822227;29;20216;-85
2024/01/23 20:40:43;;;;;;;14.03;3.50;;;;;11.40;101252.00;;;;9825604;29;20273;-84
2024/01/23 20:45:45;;;;;;;19.60;4.60;;;;;11.50;101253.00;;;;9851607;29;20236;-85
2024/01/23 20:50:47;;;;;;;12.50;3.77;;;;;11.50;101253.00;;;;9834283;29;21006;-84
2024/01/23 20:55:50;;;;;;;18.67;4.40;;;;;11.60;101247.00;;;;9842311;29;20870;-86
2024/01/23 21:00:51;;;;;;;20.23;4.30;;;;;11.70;101225.00;;;;9835905;29;20246;-86
2024/01/23 21:05:53;;;;;;;18.43;3.57;;;;;11.80;101237.00;;;;9856676;29;20256;-85
2024/01/23 21:10:56;;;;;;;17.77;3.75;;;;;11.80;101223.00;;;;9838724;29;20236;-83
2024/01/23 21:15:57;;;;;;;12.43;3.47;;;;;11.80;101216.00;;;;9838017;29;20272;-83
2024/01/23 21:21:01;;;;;;;16.70;4.00;;;;;11.90;101228.00;;;;9822878;29;20239;-83
2024/01/23 21:26:02;;;;;;;13.00;4.15;;;;;11.90;101229.00;;;;9852759;29;21025;-85
2024/01/23 21:31:04;;;;;;;19.00;4.35;;;;;12.00;101228.00;;;;9852794;29;20228;-84
2024/01/23 21:36:06;;;;;;;19.17;3.42;;;;;12.00;101219.00;;;;9838130;29;20232;-84
2024/01/23 21:41:09;;;;;;;14.20;3.15;;;;;12.00;101203.00;;;;9845430;29;20301;-83
2024/01/23 21:46:12;;;;;;;12.00;3.10;;;;;12.00;101209.00;;;;9829372;29;20224;-83
2024/01/23 21:51:15;;;;;;;11.80;3.60;;;;;12.00;101224.00;;;;9830046;29;20237;-82
2024/01/23 21:56:17;;;;;;;15.13;3.37;;;;;12.10;101215.00;;;;9858455;29;20236;-82
2024/01/23 22:01:18;;;;;;;14.35;3.78;;;;;12.10;101204.00;;;;9833286;29;20224;-82
2024/01/23 22:06:20;;;;;;;14.75;3.22;;;;;12.10;101198.00;;;;9847454;29;21089;-82
2024/01/23 22:11:22;;;;;;;10.50;3.63;;;;;12.10;101206.00;;;;9831786;29;20891;-81
2024/01/23 22:16:24;;;;;;;10.63;3.72;;;;;12.10;101198.00;;;;9845717;29;20751;-81
2024/01/23 22:21:27;;;;;;;8.55;2.97;;;;;12.10;101172.00;;;;9849168;29;20259;-83
2024/01/23 22:26:29;;;;;;;7.47;2.60;;;;;12.10;101181.00;;;;9848582;29;20857;-82
2024/01/23 22:31:31;;;;;;;12.60;2.97;;;;;12.20;101180.00;;;;9826477;29;20216;-82
2024/01/23 22:36:33;;;;;;;13.27;2.78;;;;;12.20;101194.00;;;;9837277;29;20232;-81
2024/01/23 22:41:35;;;;;;;7.55;3.05;;;;;12.30;101166.00;;;;9832317;29;20226;-82
2024/01/23 22:46:38;;;;;;;11.90;2.67;;;;;12.20;101162.00;;;;9851123;29;20298;-83
2024/01/23 22:51:40;;;;;;;7.43;2.30;;;;;12.30;101164.00;;;;9837961;29;20635;-83
2024/01/23 22:56:42;;;;;;;5.18;2.10;;;;;12.30;101174.00;;;;9842283;29;20231;-84
2024/01/23 23:01:44;;;;;;;5.57;2.38;;;;;12.30;101164.00;;;;9833523;29;20239;-86
2024/01/23 23:06:46;;;;;;;7.57;2.20;;;;;12.30;101143.00;;;;9843031;29;20308;-81
2024/01/23 23:11:49;;;;;;;8.50;2.45;;;;;12.30;101147.00;;;;9851321;29;20734;-85
2024/01/23 23:16:51;;;;;;;2.95;1.80;;;;;12.40;101158.00;;;;9862801;29;20216;-86
2024/01/23 23:21:52;;;;;;;7.13;2.20;;;;;12.40;101172.00;;;;9836588;29;20244;-84
2024/01/23 23:26:54;;;;;;;8.88;2.28;;;;;12.40;101178.00;;;;9844384;29;20224;-85
2024/01/23 23:31:56;;;;;;;6.13;2.10;;;;;12.50;101181.00;;;;9849212;29;20577;-84
2024/01/23 23:36:58;;;;;;;5.25;2.08;;;;;12.50;101172.00;;;;9855821;29;20224;-85
2024/01/23 23:42:00;;;;;;;9.23;2.30;;;;;12.60;101163.00;;;;9841519;29;20679;-84
2024/01/23 23:47:02;;;;;;;6.00;1.88;;;;;12.60;101170.00;;;;9824688;29;20307;-84
2024/01/23 23:52:05;;;;;;;3.38;1.58;;;;;12.70;101160.00;;;;9852991;29;20236;-84
2024/01/23 23:57:07;;;;;;;5.32;1.70;;;;;12.70;101126.00;;;;9834397;30;20350;-86
